Time;durP1;ratioP1;P1;durP2;ratioP2;P2;SDS_P1;SDS_P2;PMS_P1;PMS_P2;Temp;Humidity;BMP_temperature;BMP_pressure;BME280_temperature;BME280_humidity;BME280_pressure;Samples;Min_cycle;Max_cycle;Signal;HPM_P1;HPM_P2
2022/08/07 00:01:10;;;;;;;;;;;;;;;24.04;77.10;96729.20;626654;226;65368;-66
2022/08/07 00:03:40;;;;;;;;;;;;;;;24.04;77.07;96725.73;626817;226;67378;-66
2022/08/07 00:06:07;;;;;;;;;;;;;;;24.04;76.99;96729.20;626811;226;64686;-66
2022/08/07 00:08:35;;;;;;;;;;;;;;;24.04;76.90;96733.78;626778;226;62966;-66
2022/08/07 00:11:05;;;;;;;;;;;;;;;24.04;76.99;96733.78;626747;226;67232;-65
2022/08/07 00:13:33;;;;;;;;;;;;;;;24.04;77.02;96731.89;626786;226;67161;-65
2022/08/07 00:16:01;;;;;;;;;;;;;;;24.04;76.96;96728.41;626750;226;62814;-66
2022/08/07 00:18:28;;;;;;;;;;;;;;;24.03;77.00;96727.59;626832;226;64816;-66
2022/08/07 00:20:57;;;;;;;;;;;;;;;24.04;76.99;96731.89;626792;226;64770;-66
2022/08/07 00:23:25;;;;;;;;;;;;;;;24.04;77.07;96731.89;626779;226;64930;-66
2022/08/07 00:25:53;;;;;;;;;;;;;;;24.04;77.08;96731.10;626758;226;65067;-66
2022/08/07 00:28:21;;;;;;;;;;;;;;;24.04;77.01;96733.78;626778;226;68022;-66
2022/08/07 00:30:48;;;;;;;;;;;;;;;24.03;77.05;96727.59;626861;226;64883;-66
2022/08/07 00:33:16;;;;;;;;;;;;;;;24.03;77.01;96730.28;626779;226;67139;-66
2022/08/07 00:35:43;;;;;;;;;;;;;;;24.03;76.98;96727.59;626808;226;66795;-66
2022/08/07 00:38:11;;;;;;;;;;;;;;;24.04;76.96;96731.10;626754;226;65994;-66
2022/08/07 00:40:38;;;;;;;;;;;;;;;24.04;76.99;96733.78;626785;226;67190;-66
2022/08/07 00:43:06;;;;;;;;;;;;;;;24.03;76.93;96732.97;626814;226;64826;-66
2022/08/07 00:45:33;;;;;;;;;;;;;;;24.04;76.93;96731.10;626791;226;65183;-66
2022/08/07 00:48:01;;;;;;;;;;;;;;;24.03;76.92;96735.65;626751;226;68231;-66
2022/08/07 00:50:29;;;;;;;;;;;;;;;24.03;76.95;96743.70;626757;226;66970;-66
2022/08/07 00:52:56;;;;;;;;;;;;;;;24.03;77.00;96738.33;626777;226;65061;-66
2022/08/07 00:55:24;;;;;;;;;;;;;;;24.03;77.05;96732.97;626824;226;67439;-66
2022/08/07 00:57:52;;;;;;;;;;;;;;;24.02;77.08;96731.38;626742;226;66923;-66
2022/08/07 01:00:19;;;;;;;;;;;;;;;24.03;77.02;96732.97;626837;226;65186;-66
2022/08/07 01:02:47;;;;;;;;;;;;;;;24.03;77.10;96737.55;626782;226;66613;-66
2022/08/07 01:05:15;;;;;;;;;;;;;;;24.02;77.05;96734.07;626792;226;64378;-66
2022/08/07 01:07:43;;;;;;;;;;;;;;;24.02;77.05;96736.75;626813;226;63540;-66
2022/08/07 01:10:10;;;;;;;;;;;;;;;24.02;77.04;96731.38;626794;226;67195;-66
2022/08/07 01:12:40;;;;;;;;;;;;;;;24.02;77.09;96734.07;626754;226;67194;-66
2022/08/07 01:15:08;;;;;;;;;;;;;;;24.03;77.03;96732.17;626793;226;64980;-66
2022/08/07 01:17:36;;;;;;;;;;;;;;;24.02;77.03;96731.38;626759;226;67030;-66
2022/08/07 01:20:09;;;;;;;;;;;;;;;24.02;77.03;96731.38;626838;226;64698;-66
2022/08/07 01:22:37;;;;;;;;;;;;;;;24.02;77.04;96744.02;626771;226;62999;-67
2022/08/07 01:25:06;;;;;;;;;;;;;;;24.02;77.08;96736.75;626788;226;67667;-66
2022/08/07 01:27:35;;;;;;;;;;;;;;;24.01;77.04;96735.17;626792;226;66893;-66
2022/08/07 01:30:03;;;;;;;;;;;;;;;24.02;76.97;96736.75;626757;226;65729;-66
2022/08/07 01:32:32;;;;;;;;;;;;;;;24.01;77.01;96737.86;626795;226;67208;-66
2022/08/07 01:35:01;;;;;;;;;;;;;;;24.01;77.00;96740.55;626856;226;67420;-66
2022/08/07 01:37:29;;;;;;;;;;;;;;;24.02;76.96;96747.48;626776;226;62762;-66
2022/08/07 01:40:00;;;;;;;;;;;;;;;24.01;77.06;96740.55;626798;226;67179;-66
2022/08/07 01:42:29;;;;;;;;;;;;;;;24.00;77.03;96736.25;626818;226;43937;-66
2022/08/07 01:44:57;;;;;;;;;;;;;;;24.00;76.94;96728.20;626787;226;65677;-66
2022/08/07 01:47:25;;;;;;;;;;;;;;;24.00;76.99;96733.56;626810;226;67238;-66
2022/08/07 01:49:53;;;;;;;;;;;;;;;24.00;76.99;96741.62;626766;226;67758;-66
2022/08/07 01:52:22;;;;;;;;;;;;;;;24.01;77.02;96739.72;626805;226;62939;-66
2022/08/07 01:54:51;;;;;;;;;;;;;;;24.02;77.00;96747.48;626782;226;67248;-66
2022/08/07 01:57:20;;;;;;;;;;;;;;;24.00;76.99;96738.93;626692;226;67227;-66
2022/08/07 01:59:49;;;;;;;;;;;;;;;24.01;76.98;96740.55;626827;226;65951;-66
2022/08/07 02:02:31;;;;;;;;;;;;;;;24.01;76.99;96739.72;625775;226;64973;-66
2022/08/07 02:05:10;;;;;;;;;;;;;;;24.00;76.99;96738.93;626435;226;67502;-66
2022/08/07 02:07:40;;;;;;;;;;;;;;;24.00;76.99;96741.62;626485;226;62751;-66
2022/08/07 02:10:08;;;;;;;;;;;;;;;23.99;76.97;96745.41;626724;226;67281;-66
2022/08/07 02:12:38;;;;;;;;;;;;;;;24.00;77.04;96743.52;626753;226;45570;-66
2022/08/07 02:15:08;;;;;;;;;;;;;;;23.99;77.11;96733.88;626864;226;42348;-66
2022/08/07 02:17:39;;;;;;;;;;;;;;;23.99;77.13;96740.03;623330;226;45491;-66
2022/08/07 02:20:08;;;;;;;;;;;;;;;23.99;77.17;96742.72;622152;228;67329;-66
2022/08/07 02:22:37;;;;;;;;;;;;;;;23.99;77.21;96736.56;622119;228;62833;-66
2022/08/07 02:25:06;;;;;;;;;;;;;;;23.99;77.09;96744.61;622177;228;67450;-66
2022/08/07 02:27:34;;;;;;;;;;;;;;;23.98;77.06;96735.77;622210;228;67028;-66
2022/08/07 02:30:03;;;;;;;;;;;;;;;23.98;77.05;96738.45;622224;228;65143;-66
2022/08/07 02:32:38;;;;;;;;;;;;;;;23.99;77.04;96742.72;621975;227;46898;-66
2022/08/07 02:35:04;;;;;;;;;;;;;;;23.99;77.00;96741.93;621920;227;64484;-66
2022/08/07 02:37:33;;;;;;;;;;;;;;;23.98;77.04;96741.14;622183;228;63102;-66
2022/08/07 02:40:02;;;;;;;;;;;;;;;23.98;76.99;96741.14;622229;228;67248;-66
2022/08/07 02:42:32;;;;;;;;;;;;;;;23.98;77.00;96738.45;622242;228;67170;-66
2022/08/07 02:45:01;;;;;;;;;;;;;;;23.98;77.02;96738.45;622207;228;64910;-66
2022/08/07 02:47:29;;;;;;;;;;;;;;;23.98;77.00;96733.09;622186;228;67800;-66
2022/08/07 02:49:58;;;;;;;;;;;;;;;23.99;77.08;96744.61;621866;227;46780;-66
2022/08/07 02:52:28;;;;;;;;;;;;;;;23.98;77.06;96741.14;622186;228;64995;-66
2022/08/07 02:54:57;;;;;;;;;;;;;;;23.98;77.07;96743.83;622211;228;67239;-66
2022/08/07 02:57:25;;;;;;;;;;;;;;;23.97;77.08;96736.05;622181;227;66935;-66
2022/08/07 02:59:53;;;;;;;;;;;;;;;23.97;77.03;96739.53;622173;228;62911;-66
2022/08/07 03:02:22;;;;;;;;;;;;;;;23.98;77.07;96746.51;622235;228;67090;-66
2022/08/07 03:04:51;;;;;;;;;;;;;;;23.97;77.09;96744.90;622218;228;66729;-66
2022/08/07 03:07:19;;;;;;;;;;;;;;;23.98;77.08;96743.83;622177;228;65190;-66
2022/08/07 03:09:48;;;;;;;;;;;;;;;23.98;77.07;96746.51;622255;228;67285;-66
2022/08/07 03:12:16;;;;;;;;;;;;;;;23.97;76.99;96744.90;622091;228;67438;-66
2022/08/07 03:14:44;;;;;;;;;;;;;;;23.97;76.82;96744.90;622205;228;65902;-66
2022/08/07 03:17:12;;;;;;;;;;;;;;;23.97;76.65;96744.90;621195;225;64955;-67
2022/08/07 03:19:40;;;;;;;;;;;;;;;23.97;76.48;96749.47;628951;225;67214;-66
2022/08/07 03:22:09;;;;;;;;;;;;;;;23.97;76.50;96746.79;628984;225;62501;-66
2022/08/07 03:24:37;;;;;;;;;;;;;;;23.97;76.61;96752.95;628968;225;69106;-66
2022/08/07 03:27:06;;;;;;;;;;;;;;;23.98;76.59;96767.98;628918;225;64667;-66
2022/08/07 03:29:39;;;;;;;;;;;;;;;23.97;76.54;96763.69;628761;225;43889;-66
2022/08/07 03:32:09;;;;;;;;;;;;;;;23.97;76.48;96765.58;628914;225;67295;-67
2022/08/07 03:34:38;;;;;;;;;;;;;;;23.96;76.52;96764.79;628944;225;66999;-67
2022/08/07 03:37:07;;;;;;;;;;;;;;;23.97;76.56;96770.95;628947;225;65158;-67
2022/08/07 03:39:36;;;;;;;;;;;;;;;23.97;76.57;96770.95;628900;225;67986;-67
2022/08/07 03:42:05;;;;;;;;;;;;;;;23.96;76.60;96774.73;628961;225;67736;-65
2022/08/07 03:44:35;;;;;;;;;;;;;;;23.97;76.59;96771.73;628935;225;65621;-65
2022/08/07 03:47:03;;;;;;;;;;;;;;;23.96;76.52;96774.73;628943;225;67778;-65
2022/08/07 03:49:31;;;;;;;;;;;;;;;23.96;76.51;96764.79;629010;225;66998;-65
2022/08/07 03:52:00;;;;;;;;;;;;;;;23.96;76.53;96764.79;628883;225;62433;-65
2022/08/07 03:54:28;;;;;;;;;;;;;;;23.95;76.59;96765.86;628956;225;68075;-65
2022/08/07 03:56:57;;;;;;;;;;;;;;;23.95;76.55;96771.23;628964;225;67035;-65
2022/08/07 03:59:26;;;;;;;;;;;;;;;23.95;76.52;96773.91;628933;225;65078;-65
2022/08/07 04:01:55;;;;;;;;;;;;;;;23.94;76.48;96777.70;628910;225;65075;-65
2022/08/07 04:04:23;;;;;;;;;;;;;;;23.95;76.44;96779.28;628968;225;67007;-65
2022/08/07 04:06:52;;;;;;;;;;;;;;;23.95;76.42;96783.86;628931;225;42464;-66
2022/08/07 04:09:21;;;;;;;;;;;;;;;23.96;76.45;96785.47;628936;225;67699;-66
2022/08/07 04:11:50;;;;;;;;;;;;;;;23.95;76.43;96787.33;628916;225;66927;-66
2022/08/07 04:14:17;;;;;;;;;;;;;;;23.96;76.45;96791.63;628934;225;65051;-66
2022/08/07 04:16:45;;;;;;;;;;;;;;;23.96;76.43;96791.63;626218;225;67249;-66
2022/08/07 04:19:13;;;;;;;;;;;;;;;23.95;76.42;96787.33;622221;228;66833;-66
2022/08/07 04:21:41;;;;;;;;;;;;;;;23.95;76.43;96787.33;622173;228;64929;-66
2022/08/07 04:24:11;;;;;;;;;;;;;;;23.96;76.44;96788.94;622179;228;64768;-66
2022/08/07 04:26:39;;;;;;;;;;;;;;;23.95;76.44;96787.33;622178;228;67545;-66
2022/08/07 04:29:10;;;;;;;;;;;;;;;23.95;76.40;96791.91;622223;228;62502;-66
2022/08/07 04:31:38;;;;;;;;;;;;;;;23.95;76.42;96802.65;622212;228;67310;-66
2022/08/07 04:34:07;;;;;;;;;;;;;;;23.95;76.38;96797.28;622191;228;67383;-66
2022/08/07 04:36:36;;;;;;;;;;;;;;;23.95;76.41;96795.39;622176;228;63007;-66
2022/08/07 04:39:04;;;;;;;;;;;;;;;23.95;76.34;96802.65;622174;227;67299;-66
2022/08/07 04:41:32;;;;;;;;;;;;;;;23.95;76.37;96800.75;622188;228;64822;-66
2022/08/07 04:44:01;;;;;;;;;;;;;;;23.94;76.35;96793.80;622224;228;65056;-66
2022/08/07 04:46:40;;;;;;;;;;;;;;;23.94;76.33;96801.86;622174;227;44204;-66
2022/08/07 04:49:16;;;;;;;;;;;;;;;23.95;76.37;96797.28;622158;228;67377;-66
2022/08/07 04:52:00;;;;;;;;;;;;;;;23.95;76.40;96802.65;622136;228;65539;-66
2022/08/07 04:54:32;;;;;;;;;;;;;;;23.94;76.39;96812.59;622176;228;65212;-66
2022/08/07 04:57:08;;;;;;;;;;;;;;;23.94;76.37;96799.17;622199;228;66905;-66
2022/08/07 04:59:38;;;;;;;;;;;;;;;23.93;76.42;96803.75;622169;228;63793;-67
2022/08/07 05:02:07;;;;;;;;;;;;;;;23.95;76.45;96797.28;622233;228;67980;-67
2022/08/07 05:04:37;;;;;;;;;;;;;;;23.93;76.45;96795.70;622188;228;64725;-67
2022/08/07 05:07:06;;;;;;;;;;;;;;;23.94;76.48;96804.54;622130;227;65272;-67
2022/08/07 05:09:50;;;;;;;;;;;;;;;23.94;76.55;96801.86;622116;227;66883;-67
2022/08/07 05:12:21;;;;;;;;;;;;;;;23.93;76.55;96803.75;622160;227;44048;-67
2022/08/07 05:14:50;;;;;;;;;;;;;;;23.94;76.55;96801.86;622157;227;64988;-66
2022/08/07 05:17:19;;;;;;;;;;;;;;;23.93;76.58;96797.59;622176;226;66893;-67
2022/08/07 05:19:48;;;;;;;;;;;;;;;23.93;76.58;96805.64;622207;228;66987;-67
2022/08/07 05:22:17;;;;;;;;;;;;;;;23.93;76.62;96811.01;622173;228;65731;-67
2022/08/07 05:24:45;;;;;;;;;;;;;;;23.93;76.65;96803.75;622178;228;65468;-67
2022/08/07 05:27:14;;;;;;;;;;;;;;;23.94;76.60;96809.91;622224;228;64584;-67
2022/08/07 05:29:43;;;;;;;;;;;;;;;23.93;76.59;96809.12;622213;228;65837;-67
2022/08/07 05:32:13;;;;;;;;;;;;;;;23.93;76.59;96809.12;622174;228;66964;-67
2022/08/07 05:34:42;;;;;;;;;;;;;;;23.94;76.64;96804.54;622343;228;64627;-67
2022/08/07 05:37:10;;;;;;;;;;;;;;;23.93;76.70;96819.06;622176;228;65088;-67
2022/08/07 05:39:40;;;;;;;;;;;;;;;23.94;76.71;96817.96;621069;228;46717;-67
2022/08/07 05:42:09;;;;;;;;;;;;;;;23.93;76.78;96814.48;622153;228;67703;-67
2022/08/07 05:44:38;;;;;;;;;;;;;;;23.93;76.82;96819.06;622244;228;62401;-67
2022/08/07 05:47:06;;;;;;;;;;;;;;;23.94;76.82;96820.64;622150;227;67323;-67
2022/08/07 05:49:34;;;;;;;;;;;;;;;23.93;76.82;96816.38;622167;228;67219;-67
2022/08/07 05:52:03;;;;;;;;;;;;;;;23.94;76.76;96823.33;622188;228;63767;-67
2022/08/07 05:54:31;;;;;;;;;;;;;;;23.95;76.81;96826.80;622168;228;65930;-67
2022/08/07 05:57:01;;;;;;;;;;;;;;;23.94;76.80;96826.02;622170;228;67743;-67
2022/08/07 05:59:31;;;;;;;;;;;;;;;23.94;76.78;96828.70;622190;228;63079;-66
2022/08/07 06:02:01;;;;;;;;;;;;;;;23.94;76.80;96831.37;622160;228;64101;-65
2022/08/07 06:04:31;;;;;;;;;;;;;;;23.95;76.80;96829.48;622169;228;67041;-66
2022/08/07 06:07:02;;;;;;;;;;;;;;;23.94;76.88;96831.37;622147;228;63148;-66
2022/08/07 06:09:29;;;;;;;;;;;;;;;23.95;77.03;96832.17;622145;227;67427;-66
2022/08/07 06:11:57;;;;;;;;;;;;;;;23.95;77.14;96832.96;622110;228;67029;-66
2022/08/07 06:14:26;;;;;;;;;;;;;;;23.94;76.73;96842.11;622171;228;65142;-66
2022/08/07 06:16:56;;;;;;;;;;;;;;;23.95;75.10;96837.53;624288;226;44893;-66
2022/08/07 06:19:26;;;;;;;;;;;;;;;23.96;75.75;96833.78;626671;226;44387;-66
2022/08/07 06:21:54;;;;;;;;;;;;;;;23.96;76.61;96829.20;626731;226;64888;-66
2022/08/07 06:24:22;;;;;;;;;;;;;;;23.97;76.79;96835.36;626846;226;64558;-66
2022/08/07 06:26:50;;;;;;;;;;;;;;;23.97;77.41;96836.16;626745;226;67066;-66
2022/08/07 06:29:17;;;;;;;;;;;;;;;23.97;77.70;96838.84;626765;226;65089;-66
2022/08/07 06:31:45;;;;;;;;;;;;;;;23.97;77.81;96838.05;626721;226;67251;-66
2022/08/07 06:34:13;;;;;;;;;;;;;;;23.98;77.83;96840.45;626766;226;67424;-66
2022/08/07 06:36:40;;;;;;;;;;;;;;;23.98;77.87;96843.14;626792;226;65306;-66
2022/08/07 06:39:08;;;;;;;;;;;;;;;23.99;78.05;96841.24;626771;226;67228;-66
2022/08/07 06:41:38;;;;;;;;;;;;;;;23.99;78.15;96844.72;626745;226;67364;-66
2022/08/07 06:44:08;;;;;;;;;;;;;;;23.99;78.22;96839.34;626665;226;62825;-66
2022/08/07 06:46:36;;;;;;;;;;;;;;;24.00;78.40;96840.14;626729;226;64699;-66
2022/08/07 06:49:05;;;;;;;;;;;;;;;24.01;78.28;96847.09;626814;226;66922;-66
2022/08/07 06:51:34;;;;;;;;;;;;;;;24.00;78.47;96846.30;626806;226;63921;-66
2022/08/07 06:54:04;;;;;;;;;;;;;;;24.00;78.50;96846.30;626724;226;46269;-66
2022/08/07 06:56:39;;;;;;;;;;;;;;;24.00;78.60;96835.56;626664;226;67976;-66
2022/08/07 06:59:12;;;;;;;;;;;;;;;24.01;78.60;96837.17;626638;226;43855;-66
2022/08/07 07:01:42;;;;;;;;;;;;;;;24.03;78.64;96847.60;626804;226;48745;-67
2022/08/07 07:04:10;;;;;;;;;;;;;;;24.02;78.72;96851.39;626775;226;66991;-66
2022/08/07 07:06:40;;;;;;;;;;;;;;;24.02;78.67;96852.17;626723;226;64878;-66
2022/08/07 07:09:17;;;;;;;;;;;;;;;24.02;78.78;96851.39;626760;226;67345;-66
2022/08/07 07:11:46;;;;;;;;;;;;;;;24.02;78.81;96851.39;626755;226;67102;-66
2022/08/07 07:14:15;;;;;;;;;;;;;;;24.03;78.89;96851.08;626728;226;62728;-66
2022/08/07 07:16:43;;;;;;;;;;;;;;;24.03;78.86;96844.91;625079;226;66944;-66
2022/08/07 07:19:12;;;;;;;;;;;;;;;24.03;78.90;96856.45;622228;228;67235;-66
2022/08/07 07:21:40;;;;;;;;;;;;;;;24.04;79.04;96850.00;622134;227;64957;-66
2022/08/07 07:24:09;;;;;;;;;;;;;;;24.04;79.00;96852.69;622174;228;67302;-66
2022/08/07 07:26:39;;;;;;;;;;;;;;;24.04;78.99;96852.69;622165;228;65225;-66
2022/08/07 07:29:08;;;;;;;;;;;;;;;24.05;79.04;96850.80;622228;228;65064;-66
2022/08/07 07:31:40;;;;;;;;;;;;;;;24.05;79.06;96848.11;622114;227;67129;-66
2022/08/07 07:34:09;;;;;;;;;;;;;;;24.05;79.11;96850.80;622190;228;66874;-66
2022/08/07 07:36:38;;;;;;;;;;;;;;;24.05;79.15;96854.27;622193;228;62734;-66
2022/08/07 07:39:06;;;;;;;;;;;;;;;24.05;77.74;96853.48;622166;228;64845;-66
2022/08/07 07:41:34;;;;;;;;;;;;;;;24.06;78.04;96855.06;622255;228;64775;-67
2022/08/07 07:44:03;;;;;;;;;;;;;;;24.06;78.95;96845.14;622239;228;63012;-67
2022/08/07 07:46:32;;;;;;;;;;;;;;;24.07;79.13;96843.25;622179;228;68028;-68
2022/08/07 07:49:00;;;;;;;;;;;;;;;24.07;78.70;96851.30;622216;228;67064;-67
2022/08/07 07:51:28;;;;;;;;;;;;;;;24.06;78.35;96845.14;622157;228;62599;-67
2022/08/07 07:53:57;;;;;;;;;;;;;;;24.06;78.63;96847.83;622176;228;67054;-67
2022/08/07 07:56:26;;;;;;;;;;;;;;;24.07;78.82;96844.04;622250;228;64785;-67
2022/08/07 07:58:54;;;;;;;;;;;;;;;24.08;78.30;96847.52;622187;228;63003;-67
2022/08/07 08:01:22;;;;;;;;;;;;;;;24.08;78.45;96840.25;622192;228;64614;-67
2022/08/07 08:03:50;;;;;;;;;;;;;;;24.08;78.68;96852.89;622187;228;66895;-67
2022/08/07 08:06:19;;;;;;;;;;;;;;;24.09;78.35;96844.55;622166;228;64898;-67
2022/08/07 08:08:47;;;;;;;;;;;;;;;24.07;78.45;96846.73;622235;228;67072;-67
2022/08/07 08:11:15;;;;;;;;;;;;;;;24.08;77.65;96850.99;622178;228;67399;-67
2022/08/07 08:13:46;;;;;;;;;;;;;;;24.08;77.46;96848.31;622169;228;65020;-67
2022/08/07 08:16:15;;;;;;;;;;;;;;;24.09;77.29;96843.73;622172;226;64963;-66
2022/08/07 08:18:44;;;;;;;;;;;;;;;24.09;77.71;96846.41;622195;228;66937;-66
2022/08/07 08:27:03;;;;;;;;;;;;;;;24.10;77.59;96850.71;622168;228;65092;-66
2022/08/07 08:29:16;;;;;;;;;;;;;;;24.10;77.76;96845.34;605967;234;65191;-66
2022/08/07 08:31:44;;;;;;;;;;;;;;;24.10;77.86;96846.13;606002;234;66962;-66
2022/08/07 08:34:13;;;;;;;;;;;;;;;24.10;77.81;96850.71;611631;227;67090;-66
2022/08/07 08:36:42;;;;;;;;;;;;;;;24.11;77.95;96857.66;622151;228;65006;-66
2022/08/07 08:39:10;;;;;;;;;;;;;;;24.11;77.97;96855.77;622221;228;67442;-66
2022/08/07 08:41:50;;;;;;;;;;;;;;;24.10;78.12;96859.56;622145;227;48326;-66
2022/08/07 08:44:19;;;;;;;;;;;;;;;24.10;78.09;96859.56;621669;228;62661;-67
2022/08/07 08:46:54;;;;;;;;;;;;;;;24.11;78.13;96874.56;621996;227;67414;-66
2022/08/07 08:49:22;;;;;;;;;;;;;;;24.11;78.04;96889.88;622192;228;64755;-66
2022/08/07 08:51:56;;;;;;;;;;;;;;;24.11;78.14;96893.36;622166;228;64954;-66
2022/08/07 08:54:25;;;;;;;;;;;;;;;24.11;78.16;96906.78;617949;228;67196;-66
2022/08/07 08:56:53;;;;;;;;;;;;;;;24.11;78.21;96885.30;622127;227;67045;-66
2022/08/07 08:59:34;;;;;;;;;;;;;;;24.11;78.30;96879.14;622226;228;62639;-66
2022/08/07 09:02:05;;;;;;;;;;;;;;;24.11;78.58;96877.25;622184;227;64903;-66
2022/08/07 09:04:38;;;;;;;;;;;;;;;24.11;78.58;96874.56;622206;228;64914;-65
2022/08/07 09:07:12;;;;;;;;;;;;;;;24.11;78.52;96871.88;622233;228;65195;-66
2022/08/07 09:09:56;;;;;;;;;;;;;;;24.12;78.52;96875.38;622149;227;67048;-66
2022/08/07 09:12:40;;;;;;;;;;;;;;;24.11;78.50;96874.56;622131;227;67069;-65
2022/08/07 09:15:24;;;;;;;;;;;;;;;24.11;78.51;96879.93;622202;228;63602;-65
2022/08/07 09:17:56;;;;;;;;;;;;;;;24.11;78.50;96879.93;622231;226;64861;-67
2022/08/07 09:20:28;;;;;;;;;;;;;;;24.11;78.59;96896.04;620320;228;66359;-66
2022/08/07 09:22:57;;;;;;;;;;;;;;;24.11;78.55;96882.61;622251;228;63103;-66
2022/08/07 09:25:41;;;;;;;;;;;;;;;24.11;78.58;96885.30;622135;227;66933;-66
2022/08/07 09:28:11;;;;;;;;;;;;;;;24.11;78.77;96879.93;622157;227;66927;-66
2022/08/07 09:30:43;;;;;;;;;;;;;;;24.12;78.89;96880.75;621990;227;63967;-67
2022/08/07 09:33:21;;;;;;;;;;;;;;;24.12;78.88;96881.55;622113;227;66755;-65
2022/08/07 09:35:53;;;;;;;;;;;;;;;24.12;79.03;96870.80;622187;228;64584;-66
2022/08/07 09:38:22;;;;;;;;;;;;;;;24.11;78.97;96863.83;622159;227;65956;-66
2022/08/07 09:41:07;;;;;;;;;;;;;;;24.12;78.92;96872.70;621267;228;66733;-66
2022/08/07 09:43:45;;;;;;;;;;;;;;;24.11;78.99;96874.56;622205;228;65754;-65
2022/08/07 09:46:23;;;;;;;;;;;;;;;24.13;78.95;96879.66;622219;228;65184;-66
2022/08/07 09:49:11;;;;;;;;;;;;;;;24.12;78.93;96876.17;622114;227;66761;-67
2022/08/07 09:51:52;;;;;;;;;;;;;;;24.12;79.12;96870.80;622234;228;66928;-65
2022/08/07 09:54:21;;;;;;;;;;;;;;;24.12;79.01;96865.44;621988;227;65209;-66
2022/08/07 09:56:50;;;;;;;;;;;;;;;24.12;78.88;96865.44;622225;228;65061;-66
2022/08/07 09:59:35;;;;;;;;;;;;;;;24.11;78.80;96863.83;621994;227;64946;-66
2022/08/07 10:02:23;;;;;;;;;;;;;;;24.12;78.77;96862.75;622215;228;62872;-66
2022/08/07 10:05:04;;;;;;;;;;;;;;;24.13;78.77;96858.17;622193;228;67013;-66
2022/08/07 10:07:33;;;;;;;;;;;;;;;24.12;78.81;96854.70;622204;228;66931;-66
2022/08/07 10:10:08;;;;;;;;;;;;;;;24.13;78.84;96858.96;622224;228;65980;-66
2022/08/07 10:12:50;;;;;;;;;;;;;;;24.12;78.85;96854.70;622087;227;67140;-66
2022/08/07 10:15:22;;;;;;;;;;;;;;;24.13;78.83;96858.96;622147;228;67241;-66
2022/08/07 10:18:09;;;;;;;;;;;;;;;24.13;78.68;96853.59;622207;226;62780;-66
2022/08/07 10:20:38;;;;;;;;;;;;;;;24.13;78.73;96855.48;622198;228;64846;-65
2022/08/07 10:23:10;;;;;;;;;;;;;;;24.14;78.80;96854.39;622201;228;64815;-65
2022/08/07 10:25:45;;;;;;;;;;;;;;;24.14;78.79;96852.52;621879;227;62998;-66
2022/08/07 10:28:22;;;;;;;;;;;;;;;24.13;78.97;96845.54;622001;227;67111;-66
2022/08/07 10:30:57;;;;;;;;;;;;;;;24.13;78.82;96845.54;622241;228;64691;-66
2022/08/07 10:33:35;;;;;;;;;;;;;;;24.14;78.89;96847.16;622218;228;63066;-65
2022/08/07 10:36:20;;;;;;;;;;;;;;;24.14;78.71;96852.52;622188;228;64845;-66
2022/08/07 10:39:05;;;;;;;;;;;;;;;24.14;78.70;96840.96;621967;227;66657;-66
2022/08/07 10:41:35;;;;;;;;;;;;;;;24.14;78.52;96839.09;622241;228;62894;-67
2022/08/07 10:44:07;;;;;;;;;;;;;;;24.14;78.56;96844.47;622218;228;67200;-67
2022/08/07 10:46:36;;;;;;;;;;;;;;;24.14;78.51;96835.59;622091;227;67476;-67
2022/08/07 10:49:15;;;;;;;;;;;;;;;24.14;78.47;96836.41;622176;227;65022;-67
2022/08/07 10:51:44;;;;;;;;;;;;;;;24.15;78.37;96842.58;622015;227;67330;-67
2022/08/07 10:54:29;;;;;;;;;;;;;;;24.15;78.41;96843.36;622050;227;66893;-67
2022/08/07 10:56:58;;;;;;;;;;;;;;;24.14;78.27;96839.09;622238;228;65140;-68
2022/08/07 10:59:42;;;;;;;;;;;;;;;24.16;78.40;96841.47;622000;227;67136;-68
2022/08/07 11:02:12;;;;;;;;;;;;;;;24.15;78.31;96837.99;622244;228;64795;-68
2022/08/07 11:04:50;;;;;;;;;;;;;;;24.16;78.35;96836.09;622245;228;63024;-68
2022/08/07 11:07:22;;;;;;;;;;;;;;;24.16;78.41;96844.16;622264;228;66759;-68
2022/08/07 11:09:51;;;;;;;;;;;;;;;24.17;78.27;96839.58;622216;228;64853;-68
2022/08/07 11:12:23;;;;;;;;;;;;;;;24.16;78.36;96838.78;622167;227;64871;-68
2022/08/07 11:15:07;;;;;;;;;;;;;;;24.17;78.35;96839.58;622089;227;67377;-68
2022/08/07 11:17:39;;;;;;;;;;;;;;;24.15;78.32;96837.99;622200;226;65630;-68
2022/08/07 11:20:08;;;;;;;;;;;;;;;24.17;78.38;96828.84;622256;228;64878;-68
2022/08/07 11:22:37;;;;;;;;;;;;;;;24.18;78.39;96827.77;622198;227;72259;-68
2022/08/07 11:25:16;;;;;;;;;;;;;;;24.17;78.47;96826.16;622169;227;67755;-68
2022/08/07 11:27:51;;;;;;;;;;;;;;;24.17;78.46;96829.63;622239;228;64961;-68
2022/08/07 11:30:23;;;;;;;;;;;;;;;24.18;78.44;96827.77;622209;227;67279;-68
2022/08/07 11:33:06;;;;;;;;;;;;;;;24.18;78.41;96825.08;622223;228;65718;-68
2022/08/07 11:35:35;;;;;;;;;;;;;;;24.18;78.33;96825.08;622239;228;65286;-68
2022/08/07 11:38:04;;;;;;;;;;;;;;;24.18;78.30;96819.70;622204;228;67161;-68
2022/08/07 11:40:47;;;;;;;;;;;;;;;24.18;78.24;96819.70;622140;227;66959;-68
2022/08/07 11:43:28;;;;;;;;;;;;;;;24.19;78.26;96818.61;622241;228;65267;-66
2022/08/07 11:46:09;;;;;;;;;;;;;;;24.18;78.28;96806.28;622227;228;64865;-66
2022/08/07 11:48:41;;;;;;;;;;;;;;;24.18;78.29;96804.39;622238;228;67063;-67
2022/08/07 11:51:10;;;;;;;;;;;;;;;24.18;78.39;96793.65;622201;228;62570;-67
2022/08/07 11:53:40;;;;;;;;;;;;;;;24.18;78.35;96795.55;622199;228;67383;-67
2022/08/07 11:56:13;;;;;;;;;;;;;;;24.18;78.31;96790.17;617546;228;66597;-67
2022/08/07 11:58:42;;;;;;;;;;;;;;;24.19;78.28;96783.70;622036;227;65047;-67
2022/08/07 12:01:11;;;;;;;;;;;;;;;24.18;78.22;96780.22;622057;227;67195;-67
2022/08/07 12:03:46;;;;;;;;;;;;;;;24.19;78.25;96784.48;621965;227;67289;-67
2022/08/07 12:06:17;;;;;;;;;;;;;;;24.19;78.27;96781.80;618411;228;63127;-67
2022/08/07 12:08:51;;;;;;;;;;;;;;;24.19;78.22;96767.59;622232;228;64912;-67
2022/08/07 12:11:23;;;;;;;;;;;;;;;24.20;78.21;96778.05;622227;228;64893;-67
2022/08/07 12:13:53;;;;;;;;;;;;;;;24.19;78.29;96772.95;622183;228;62910;-67
2022/08/07 12:16:22;;;;;;;;;;;;;;;24.20;78.22;96766.48;622970;226;64878;-67
2022/08/07 12:18:54;;;;;;;;;;;;;;;24.19;78.22;96767.59;626603;226;64522;-67
2022/08/07 12:21:38;;;;;;;;;;;;;;;24.20;78.23;96778.05;626852;226;63025;-67
2022/08/07 12:24:10;;;;;;;;;;;;;;;24.21;78.15;96797.63;626714;226;64572;-66
2022/08/07 12:26:36;;;;;;;;;;;;;;;;;;626691;226;66955;-66
2022/08/07 12:29:08;;;;;;;;;;;;;;;24.20;77.91;96837.12;626900;226;64857;-66
2022/08/07 12:31:52;;;;;;;;;;;;;;;24.20;77.78;96845.17;626772;226;67693;-65
2022/08/07 12:34:21;;;;;;;;;;;;;;;24.20;77.95;96855.91;626601;226;66911;-67
2022/08/07 12:36:49;;;;;;;;;;;;;;;24.20;78.11;96852.41;626813;226;65028;-67
2022/08/07 12:39:18;;;;;;;;;;;;;;;24.23;78.33;96849.16;626828;226;67749;-67
2022/08/07 12:41:46;;;;;;;;;;;;;;;24.21;78.48;96835.22;626826;226;67260;-67
2022/08/07 12:44:14;;;;;;;;;;;;;;;24.20;78.52;96833.61;626839;226;65055;-67
2022/08/07 12:46:50;;;;;;;;;;;;;;;24.21;78.57;96835.22;626857;226;67045;-67
2022/08/07 12:49:19;;;;;;;;;;;;;;;24.20;78.65;96838.98;626808;226;67237;-67
2022/08/07 12:51:49;;;;;;;;;;;;;;;24.20;78.53;96833.61;626589;226;62733;-67
2022/08/07 12:54:27;;;;;;;;;;;;;;;24.21;78.52;96838.70;626786;226;67078;-67
2022/08/07 12:56:56;;;;;;;;;;;;;;;24.20;78.49;96839.80;626782;226;67023;-67
2022/08/07 12:59:25;;;;;;;;;;;;;;;24.20;78.44;96847.86;626789;226;65039;-67
2022/08/07 13:01:57;;;;;;;;;;;;;;;24.20;78.34;96845.17;626765;226;64903;-67
2022/08/07 13:04:33;;;;;;;;;;;;;;;24.20;78.32;96845.17;626852;226;67124;-68
2022/08/07 13:07:20;;;;;;;;;;;;;;;24.21;78.35;96835.22;626779;226;64883;-66
2022/08/07 13:10:01;;;;;;;;;;;;;;;24.21;78.39;96838.70;626756;226;67259;-67
2022/08/07 13:12:39;;;;;;;;;;;;;;;24.20;78.30;96829.06;626443;226;66673;-66